sensor_id;sensor_type;location;lat;lon;timestamp;pressure;altitude;pressure_sealevel;temperature;humidity
62708;BME280;48769;51.624;5.886;2022-12-18T00:00:04;102649.25;;;-2.16;80.12
62708;BME280;48769;51.624;5.886;2022-12-18T00:02:30;102638.84;;;-2.18;80.38
62708;BME280;48769;51.624;5.886;2022-12-18T00:04:56;102641.25;;;-2.24;80.31
62708;BME280;48769;51.624;5.886;2022-12-18T00:07:21;102643.94;;;-2.21;80.20
62708;BME280;48769;51.624;5.886;2022-12-18T00:09:46;102646.34;;;-2.27;80.11
62708;BME280;48769;51.624;5.886;2022-12-18T00:12:11;102643.00;;;-2.23;80.43
62708;BME280;48769;51.624;5.886;2022-12-18T00:14:37;102645.69;;;-2.20;80.36
62708;BME280;48769;51.624;5.886;2022-12-18T00:17:02;102631.28;;;-2.40;79.93
62708;BME280;48769;51.624;5.886;2022-12-18T00:19:27;102644.84;;;-2.47;81.04
62708;BME280;48769;51.624;5.886;2022-12-18T00:21:53;102642.97;;;-2.51;80.73
62708;BME280;48769;51.624;5.886;2022-12-18T00:24:18;102657.53;;;-2.55;80.78
62708;BME280;48769;51.624;5.886;2022-12-18T00:26:44;102646.59;;;-2.46;80.19
62708;BME280;48769;51.624;5.886;2022-12-18T00:29:12;102643.38;;;-2.39;80.36
62708;BME280;48769;51.624;5.886;2022-12-18T00:31:39;102648.44;;;-2.42;79.94
62708;BME280;48769;51.624;5.886;2022-12-18T00:34:05;102637.63;;;-2.58;80.16
62708;BME280;48769;51.624;5.886;2022-12-18T00:36:32;102640.94;;;-2.62;80.19
62708;BME280;48769;51.624;5.886;2022-12-18T00:38:59;102628.13;;;-2.57;80.33
62708;BME280;48769;51.624;5.886;2022-12-18T00:41:26;102630.00;;;-2.53;80.05
62708;BME280;48769;51.624;5.886;2022-12-18T00:44:12;102629.19;;;-2.52;80.16
62708;BME280;48769;51.624;5.886;2022-12-18T00:46:38;102624.84;;;-2.53;79.89
62708;BME280;48769;51.624;5.886;2022-12-18T00:49:04;102622.81;;;-2.63;79.74
62708;BME280;48769;51.624;5.886;2022-12-18T00:51:29;102628.56;;;-2.72;80.21
62708;BME280;48769;51.624;5.886;2022-12-18T00:53:55;102629.56;;;-2.67;80.26
62708;BME280;48769;51.624;5.886;2022-12-18T00:56:21;102628.13;;;-2.57;80.43
62708;BME280;48769;51.624;5.886;2022-12-18T00:58:47;102625.72;;;-2.52;80.22
62708;BME280;48769;51.624;5.886;2022-12-18T01:01:13;102628.09;;;-2.59;79.83
62708;BME280;48769;51.624;5.886;2022-12-18T01:03:38;102628.56;;;-2.72;78.97
62708;BME280;48769;51.624;5.886;2022-12-18T01:06:08;102633.06;;;-2.66;79.69
62708;BME280;48769;51.624;5.886;2022-12-18T01:08:33;102628.84;;;-2.63;79.83
62708;BME280;48769;51.624;5.886;2022-12-18T01:10:59;102628.75;;;-2.66;79.56
62708;BME280;48769;51.624;5.886;2022-12-18T01:13:24;102636.41;;;-2.69;79.67
62708;BME280;48769;51.624;5.886;2022-12-18T01:15:50;102637.28;;;-2.68;79.21
62708;BME280;48769;51.624;5.886;2022-12-18T01:18:16;102636.41;;;-2.69;79.69
62708;BME280;48769;51.624;5.886;2022-12-18T01:20:41;102626.88;;;-2.70;79.52
62708;BME280;48769;51.624;5.886;2022-12-18T01:23:06;102627.03;;;-2.65;79.35
62708;BME280;48769;51.624;5.886;2022-12-18T01:25:32;102640.09;;;-2.61;79.72
62708;BME280;48769;51.624;5.886;2022-12-18T01:27:57;102647.06;;;-2.60;79.58
62708;BME280;48769;51.624;5.886;2022-12-18T01:30:23;102643.97;;;-2.75;78.97
62708;BME280;48769;51.624;5.886;2022-12-18T01:32:48;102642.81;;;-2.85;79.38
62708;BME280;48769;51.624;5.886;2022-12-18T01:35:14;102642.03;;;-2.82;79.63
62708;BME280;48769;51.624;5.886;2022-12-18T01:37:39;102638.72;;;-2.76;79.50
62708;BME280;48769;51.624;5.886;2022-12-18T01:40:05;102623.50;;;-2.67;79.73
62708;BME280;48769;51.624;5.886;2022-12-18T01:42:30;102630.41;;;-2.68;79.17
62708;BME280;48769;51.624;5.886;2022-12-18T01:45:06;102631.19;;;-2.70;79.29
62708;BME280;48769;51.624;5.886;2022-12-18T01:47:48;102628.16;;;-2.84;79.21
62708;BME280;48769;51.624;5.886;2022-12-18T01:50:18;102626.31;;;-2.88;79.45
62708;BME280;48769;51.624;5.886;2022-12-18T01:52:52;102624.63;;;-2.86;79.76
62708;BME280;48769;51.624;5.886;2022-12-18T01:55:20;102632.34;;;-2.88;79.43
62708;BME280;48769;51.624;5.886;2022-12-18T01:57:47;102640.13;;;-2.88;79.90
62708;BME280;48769;51.624;5.886;2022-12-18T02:00:17;102634.09;;;-2.87;79.70
62708;BME280;48769;51.624;5.886;2022-12-18T02:02:43;102626.41;;;-2.85;79.32
62708;BME280;48769;51.624;5.886;2022-12-18T02:05:10;102623.66;;;-2.90;79.06
62708;BME280;48769;51.624;5.886;2022-12-18T02:07:45;102615.03;;;-2.90;79.62
62708;BME280;48769;51.624;5.886;2022-12-18T02:10:25;102616.81;;;-2.89;79.42
62708;BME280;48769;51.624;5.886;2022-12-18T02:12:58;102624.63;;;-2.86;79.27
62708;BME280;48769;51.624;5.886;2022-12-18T02:15:36;102623.56;;;-2.93;79.69
62708;BME280;48769;51.624;5.886;2022-12-18T02:18:11;102626.31;;;-2.88;79.29
62708;BME280;48769;51.624;5.886;2022-12-18T02:21:05;102632.25;;;-2.91;79.15
62708;BME280;48769;51.624;5.886;2022-12-18T02:23:45;102629.81;;;-2.86;79.16
62708;BME280;48769;51.624;5.886;2022-12-18T02:26:29;102618.25;;;-2.97;79.24
62708;BME280;48769;51.624;5.886;2022-12-18T02:29:03;102613.81;;;-3.01;79.45
62708;BME280;48769;51.624;5.886;2022-12-18T02:31:35;102612.25;;;-2.96;79.41
62708;BME280;48769;51.624;5.886;2022-12-18T02:34:03;102621.03;;;-2.91;79.09
62708;BME280;48769;51.624;5.886;2022-12-18T02:36:31;102615.75;;;-2.94;79.14
62708;BME280;48769;51.624;5.886;2022-12-18T02:38:59;102614.03;;;-2.95;78.83
62708;BME280;48769;51.624;5.886;2022-12-18T02:41:26;102611.94;;;-3.06;78.66
62708;BME280;48769;51.624;5.886;2022-12-18T02:43:57;102618.00;;;-3.05;78.95
62708;BME280;48769;51.624;5.886;2022-12-18T02:46:43;102626.38;;;-3.12;79.23
62708;BME280;48769;51.624;5.886;2022-12-18T02:52:05;102618.38;;;-3.20;79.55
62708;BME280;48769;51.624;5.886;2022-12-18T02:55:05;102618.50;;;-3.15;79.71
62708;BME280;48769;51.624;5.886;2022-12-18T03:05:07;102597.91;;;-3.14;79.37
62708;BME280;48769;51.624;5.886;2022-12-18T03:07:53;102594.56;;;-3.10;79.15
62708;BME280;48769;51.624;5.886;2022-12-18T03:10:26;102586.88;;;-3.08;78.59
62708;BME280;48769;51.624;5.886;2022-12-18T03:13:05;102582.59;;;-3.08;78.84
62708;BME280;48769;51.624;5.886;2022-12-18T03:15:42;102586.72;;;-3.13;78.94
62708;BME280;48769;51.624;5.886;2022-12-18T03:20:47;102604.00;;;-3.12;79.66
62708;BME280;48769;51.624;5.886;2022-12-18T03:23:19;102602.44;;;-3.07;79.10
62708;BME280;48769;51.624;5.886;2022-12-18T03:25:47;102606.75;;;-3.06;79.31
62708;BME280;48769;51.624;5.886;2022-12-18T03:28:16;102603.31;;;-3.06;78.70
62708;BME280;48769;51.624;5.886;2022-12-18T03:30:45;102604.03;;;-3.10;79.06
62708;BME280;48769;51.624;5.886;2022-12-18T03:33:23;102603.00;;;-3.15;78.67
62708;BME280;48769;51.624;5.886;2022-12-18T03:35:50;102606.53;;;-3.13;79.18
62708;BME280;48769;51.624;5.886;2022-12-18T03:38:15;102604.50;;;-3.22;78.72
62708;BME280;48769;51.624;5.886;2022-12-18T03:40:53;102595.16;;;-3.18;78.77
62708;BME280;48769;51.624;5.886;2022-12-18T03:43:51;102592.63;;;-3.17;78.43
62708;BME280;48769;51.624;5.886;2022-12-18T03:46:32;102591.75;;;-3.17;78.80
62708;BME280;48769;51.624;5.886;2022-12-18T03:49:07;102584.88;;;-3.17;78.87
62708;BME280;48769;51.624;5.886;2022-12-18T03:54:08;102576.25;;;-3.17;78.78
62708;BME280;48769;51.624;5.886;2022-12-18T03:56:42;102565.91;;;-3.17;79.20
62708;BME280;48769;51.624;5.886;2022-12-18T03:59:10;102571.69;;;-3.24;78.69
62708;BME280;48769;51.624;5.886;2022-12-18T04:01:40;102563.75;;;-3.31;78.93
62708;BME280;48769;51.624;5.886;2022-12-18T04:04:08;102562.97;;;-3.28;78.95
62708;BME280;48769;51.624;5.886;2022-12-18T04:06:35;102558.63;;;-3.29;79.03
62708;BME280;48769;51.624;5.886;2022-12-18T04:09:04;102557.91;;;-3.25;79.18
62708;BME280;48769;51.624;5.886;2022-12-18T04:11:29;102554.38;;;-3.27;79.33
62708;BME280;48769;51.624;5.886;2022-12-18T04:13:56;102560.44;;;-3.26;78.76
62708;BME280;48769;51.624;5.886;2022-12-18T04:16:23;102549.22;;;-3.27;79.51
62708;BME280;48769;51.624;5.886;2022-12-18T04:18:48;102554.31;;;-3.29;79.53
62708;BME280;48769;51.624;5.886;2022-12-18T04:21:13;102548.25;;;-3.31;79.03
62708;BME280;48769;51.624;5.886;2022-12-18T04:23:39;102547.47;;;-3.28;78.71
62708;BME280;48769;51.624;5.886;2022-12-18T04:26:04;102540.91;;;-3.44;80.06
62708;BME280;48769;51.624;5.886;2022-12-18T04:28:29;102546.44;;;-3.33;80.25
62708;BME280;48769;51.624;5.886;2022-12-18T04:30:55;102539.72;;;-3.28;79.19
62708;BME280;48769;51.624;5.886;2022-12-18T04:33:20;102533.72;;;-3.27;79.63
62708;BME280;48769;51.624;5.886;2022-12-18T04:35:46;102543.22;;;-3.26;79.09
62708;BME280;48769;51.624;5.886;2022-12-18T04:38:11;102539.75;;;-3.26;79.25
62708;BME280;48769;51.624;5.886;2022-12-18T04:40:37;102530.19;;;-3.29;79.95
62708;BME280;48769;51.624;5.886;2022-12-18T04:43:03;102535.34;;;-3.29;79.81
62708;BME280;48769;51.624;5.886;2022-12-18T04:45:30;102531.13;;;-3.27;79.77
62708;BME280;48769;51.624;5.886;2022-12-18T04:47:57;102531.97;;;-3.28;80.26
62708;BME280;48769;51.624;5.886;2022-12-18T04:50:23;102537.94;;;-3.29;80.47
62708;BME280;48769;51.624;5.886;2022-12-18T04:52:48;102535.41;;;-3.27;80.35
62708;BME280;48769;51.624;5.886;2022-12-18T04:55:13;102535.41;;;-3.27;80.76
62708;BME280;48769;51.624;5.886;2022-12-18T04:57:39;102537.22;;;-3.25;80.65
62708;BME280;48769;51.624;5.886;2022-12-18T05:00:05;102542.31;;;-3.28;80.85
62708;BME280;48769;51.624;5.886;2022-12-18T05:02:31;102540.59;;;-3.27;81.18
62708;BME280;48769;51.624;5.886;2022-12-18T05:04:56;102544.25;;;-3.21;80.77
62708;BME280;48769;51.624;5.886;2022-12-18T05:07:22;102540.81;;;-3.20;80.40
62708;BME280;48769;51.624;5.886;2022-12-18T05:09:47;102550.97;;;-3.26;80.23
62708;BME280;48769;51.624;5.886;2022-12-18T05:12:12;102558.47;;;-3.34;79.78
62708;BME280;48769;51.624;5.886;2022-12-18T05:14:37;102555.53;;;-3.44;79.30
62708;BME280;48769;51.624;5.886;2022-12-18T05:17:03;102567.72;;;-3.40;80.05
62708;BME280;48769;51.624;5.886;2022-12-18T05:19:28;102585.81;;;-3.40;80.73
62708;BME280;48769;51.624;5.886;2022-12-18T05:21:53;102584.22;;;-3.37;80.07
62708;BME280;48769;51.624;5.886;2022-12-18T05:24:19;102585.09;;;-3.36;80.05
62708;BME280;48769;51.624;5.886;2022-12-18T05:26:44;102596.97;;;-3.41;80.19
62708;BME280;48769;51.624;5.886;2022-12-18T05:29:09;102600.28;;;-3.45;80.52
62708;BME280;48769;51.624;5.886;2022-12-18T05:31:37;102600.28;;;-3.45;80.61
62708;BME280;48769;51.624;5.886;2022-12-18T05:34:03;102602.06;;;-3.44;80.53
62708;BME280;48769;51.624;5.886;2022-12-18T05:36:28;102590.16;;;-3.39;81.17
62708;BME280;48769;51.624;5.886;2022-12-18T05:38:53;102588.41;;;-3.40;81.27
62708;BME280;48769;51.624;5.886;2022-12-18T05:41:19;102582.50;;;-3.36;81.42
62708;BME280;48769;51.624;5.886;2022-12-18T05:43:44;102579.16;;;-3.34;81.77
62708;BME280;48769;51.624;5.886;2022-12-18T05:46:14;102581.88;;;-3.29;80.98
62708;BME280;48769;51.624;5.886;2022-12-18T05:48:41;102580.25;;;-3.25;81.09
62708;BME280;48769;51.624;5.886;2022-12-18T05:51:08;102571.75;;;-3.23;81.13
62708;BME280;48769;51.624;5.886;2022-12-18T05:53:35;102577.53;;;-3.30;81.17
62708;BME280;48769;51.624;5.886;2022-12-18T05:56:02;102564.81;;;-3.24;81.50
62708;BME280;48769;51.624;5.886;2022-12-18T05:58:27;102575.38;;;-3.18;81.14
62708;BME280;48769;51.624;5.886;2022-12-18T06:00:53;102571.84;;;-3.20;81.50
62708;BME280;48769;51.624;5.886;2022-12-18T06:03:18;102558.09;;;-3.19;81.38
62708;BME280;48769;51.624;5.886;2022-12-18T06:05:44;102559.97;;;-3.15;81.55
62708;BME280;48769;51.624;5.886;2022-12-18T06:08:12;102557.50;;;-3.10;81.92
62708;BME280;48769;51.624;5.886;2022-12-18T06:10:37;102553.41;;;-3.03;81.62
62708;BME280;48769;51.624;5.886;2022-12-18T06:13:03;102539.75;;;-2.99;81.20
62708;BME280;48769;51.624;5.886;2022-12-18T06:15:28;102538.00;;;-3.00;81.41
62708;BME280;48769;51.624;5.886;2022-12-18T06:17:53;102530.16;;;-3.03;81.61
62708;BME280;48769;51.624;5.886;2022-12-18T06:20:19;102524.97;;;-3.03;81.62
62708;BME280;48769;51.624;5.886;2022-12-18T06:22:45;102532.59;;;-3.08;82.42
62708;BME280;48769;51.624;5.886;2022-12-18T06:25:10;102538.69;;;-3.06;82.09
62708;BME280;48769;51.624;5.886;2022-12-18T06:27:36;102534.66;;;-2.96;82.06
62708;BME280;48769;51.624;5.886;2022-12-18T06:30:02;102535.69;;;-2.91;81.95
62708;BME280;48769;51.624;5.886;2022-12-18T06:32:31;102540.91;;;-2.90;81.36
62708;BME280;48769;51.624;5.886;2022-12-18T06:34:56;102540.03;;;-2.90;81.26
62708;BME280;48769;51.624;5.886;2022-12-18T06:37:22;102537.50;;;-2.89;81.07
62708;BME280;48769;51.624;5.886;2022-12-18T06:39:51;102527.16;;;-2.89;81.28
62708;BME280;48769;51.624;5.886;2022-12-18T06:42:16;102531.38;;;-2.92;82.07
62708;BME280;48769;51.624;5.886;2022-12-18T06:44:42;102530.31;;;-2.99;82.08
62708;BME280;48769;51.624;5.886;2022-12-18T06:47:07;102517.59;;;-2.91;82.33
62708;BME280;48769;51.624;5.886;2022-12-18T06:49:32;102520.88;;;-2.97;82.37
62708;BME280;48769;51.624;5.886;2022-12-18T06:51:57;102512.53;;;-2.88;82.38
62708;BME280;48769;51.624;5.886;2022-12-18T06:54:23;102507.38;;;-2.87;82.35
62708;BME280;48769;51.624;5.886;2022-12-18T06:56:48;102509.97;;;-2.87;82.24
62708;BME280;48769;51.624;5.886;2022-12-18T06:59:13;102511.59;;;-2.90;82.28
62708;BME280;48769;51.624;5.886;2022-12-18T07:01:39;102513.50;;;-2.85;82.51
62708;BME280;48769;51.624;5.886;2022-12-18T07:04:05;102519.63;;;-2.81;81.92
62708;BME280;48769;51.624;5.886;2022-12-18T07:06:30;102516.19;;;-2.82;82.59
62708;BME280;48769;51.624;5.886;2022-12-18T07:08:56;102508.41;;;-2.82;82.18
62708;BME280;48769;51.624;5.886;2022-12-18T07:11:21;102505.97;;;-2.77;81.76
62708;BME280;48769;51.624;5.886;2022-12-18T07:13:47;102502.66;;;-2.73;80.97
62708;BME280;48769;51.624;5.886;2022-12-18T07:16:18;102500.00;;;-2.74;81.03
62708;BME280;48769;51.624;5.886;2022-12-18T07:18:44;102504.09;;;-2.83;82.29
62708;BME280;48769;51.624;5.886;2022-12-18T07:21:12;102503.09;;;-2.86;82.66
62708;BME280;48769;51.624;5.886;2022-12-18T07:23:38;102508.63;;;-2.74;81.86
62708;BME280;48769;51.624;5.886;2022-12-18T07:26:05;102502.72;;;-2.70;81.98
62708;BME280;48769;51.624;5.886;2022-12-18T07:28:32;102503.81;;;-2.63;81.95
62708;BME280;48769;51.624;5.886;2022-12-18T07:30:58;102501.06;;;-2.68;81.91
62708;BME280;48769;51.624;5.886;2022-12-18T07:33:24;102492.38;;;-2.70;82.33
62708;BME280;48769;51.624;5.886;2022-12-18T07:35:50;102504.31;;;-2.75;82.04
62708;BME280;48769;51.624;5.886;2022-12-18T07:38:15;102497.47;;;-2.73;82.17
62708;BME280;48769;51.624;5.886;2022-12-18T07:40:40;102488.09;;;-2.69;82.10
62708;BME280;48769;51.624;5.886;2022-12-18T07:43:05;102494.25;;;-2.64;81.42
62708;BME280;48769;51.624;5.886;2022-12-18T07:45:31;102490.06;;;-2.61;81.77
62708;BME280;48769;51.624;5.886;2022-12-18T07:47:56;102485.03;;;-2.56;81.50
62708;BME280;48769;51.624;5.886;2022-12-18T07:50:21;102480.56;;;-2.62;81.93
62708;BME280;48769;51.624;5.886;2022-12-18T07:52:47;102470.28;;;-2.59;82.25
62708;BME280;48769;51.624;5.886;2022-12-18T07:55:12;102461.16;;;-2.46;81.10
62708;BME280;48769;51.624;5.886;2022-12-18T07:57:37;102456.06;;;-2.43;80.95
62708;BME280;48769;51.624;5.886;2022-12-18T08:00:03;102453.59;;;-2.38;81.17
62708;BME280;48769;51.624;5.886;2022-12-18T08:02:31;102456.16;;;-2.40;81.73
62708;BME280;48769;51.624;5.886;2022-12-18T08:04:56;102461.44;;;-2.37;81.75
62708;BME280;48769;51.624;5.886;2022-12-18T08:07:22;102459.13;;;-2.26;81.25
62708;BME280;48769;51.624;5.886;2022-12-18T08:09:47;102455.84;;;-2.19;80.90
62708;BME280;48769;51.624;5.886;2022-12-18T08:12:12;102455.16;;;-2.13;81.31
62708;BME280;48769;51.624;5.886;2022-12-18T08:14:37;102444.91;;;-2.08;80.85
62708;BME280;48769;51.624;5.886;2022-12-18T08:17:03;102450.31;;;-1.99;81.27
62708;BME280;48769;51.624;5.886;2022-12-18T08:19:28;102447.91;;;-1.93;80.62
62708;BME280;48769;51.624;5.886;2022-12-18T08:21:53;102448.94;;;-1.86;80.64
62708;BME280;48769;51.624;5.886;2022-12-18T08:24:19;102451.84;;;-1.73;80.49
62708;BME280;48769;51.624;5.886;2022-12-18T08:26:44;102448.28;;;-1.78;80.03
62708;BME280;48769;51.624;5.886;2022-12-18T08:29:09;102445.50;;;-1.85;80.51
62708;BME280;48769;51.624;5.886;2022-12-18T08:31:38;102443.41;;;-1.66;80.57
62708;BME280;48769;51.624;5.886;2022-12-18T08:34:03;102445.19;;;-1.63;79.84
62708;BME280;48769;51.624;5.886;2022-12-18T08:36:29;102448.81;;;-1.56;80.36
62708;BME280;48769;51.624;5.886;2022-12-18T08:38:54;102444.88;;;-1.41;79.41
62708;BME280;48769;51.624;5.886;2022-12-18T08:41:20;102437.31;;;-1.31;79.39
62708;BME280;48769;51.624;5.886;2022-12-18T08:43:46;102429.91;;;-1.14;79.19
62708;BME280;48769;51.624;5.886;2022-12-18T08:46:39;102429.09;;;-1.12;78.00
62708;BME280;48769;51.624;5.886;2022-12-18T08:49:06;102441.13;;;-1.15;78.46
62708;BME280;48769;51.624;5.886;2022-12-18T08:51:33;102443.94;;;-1.05;78.78
62708;BME280;48769;51.624;5.886;2022-12-18T08:53:58;102448.41;;;-0.99;78.19
62708;BME280;48769;51.624;5.886;2022-12-18T08:56:24;102440.69;;;-0.95;77.94
62708;BME280;48769;51.624;5.886;2022-12-18T08:58:53;102436.41;;;-0.94;77.57
62708;BME280;48769;51.624;5.886;2022-12-18T09:01:19;102427.81;;;-0.91;77.23
62708;BME280;48769;51.624;5.886;2022-12-18T09:03:44;102423.59;;;-0.86;77.30
62708;BME280;48769;51.624;5.886;2022-12-18T09:06:14;102412.16;;;-0.96;77.34
62708;BME280;48769;51.624;5.886;2022-12-18T09:08:41;102405.59;;;-0.79;76.89
62708;BME280;48769;51.624;5.886;2022-12-18T09:11:12;102419.53;;;-0.74;76.63
62708;BME280;48769;51.624;5.886;2022-12-18T09:13:38;102424.25;;;-0.53;76.38
62708;BME280;48769;51.624;5.886;2022-12-18T09:16:03;102422.25;;;-0.67;76.63
62708;BME280;48769;51.624;5.886;2022-12-18T09:18:29;102412.69;;;-0.68;76.57
62708;BME280;48769;51.624;5.886;2022-12-18T09:20:54;102407.81;;;-0.55;76.03
62708;BME280;48769;51.624;5.886;2022-12-18T09:23:20;102404.59;;;-0.40;75.65
62708;BME280;48769;51.624;5.886;2022-12-18T09:25:46;102404.56;;;-0.43;75.76
62708;BME280;48769;51.624;5.886;2022-12-18T09:28:13;102402.13;;;-0.34;75.36
62708;BME280;48769;51.624;5.886;2022-12-18T09:30:40;102415.56;;;-0.09;75.14
62708;BME280;48769;51.624;5.886;2022-12-18T09:33:06;102422.28;;;-0.20;74.00
62708;BME280;48769;51.624;5.886;2022-12-18T09:35:32;102416.44;;;-0.07;73.79
62708;BME280;48769;51.624;5.886;2022-12-18T09:37:57;102418.28;;;-0.02;74.36
62708;BME280;48769;51.624;5.886;2022-12-18T09:40:25;102401.72;;;-0.10;74.59
62708;BME280;48769;51.624;5.886;2022-12-18T09:42:55;102410.59;;;0.05;74.11
62708;BME280;48769;51.624;5.886;2022-12-18T09:45:23;102420.28;;;0.13;74.25
62708;BME280;48769;51.624;5.886;2022-12-18T09:47:51;102413.31;;;0.11;73.53
62708;BME280;48769;51.624;5.886;2022-12-18T09:50:32;102398.81;;;0.23;73.92
62708;BME280;48769;51.624;5.886;2022-12-18T09:53:04;102398.09;;;0.34;73.40
62708;BME280;48769;51.624;5.886;2022-12-18T09:55:45;102400.94;;;0.51;73.27
62708;BME280;48769;51.624;5.886;2022-12-18T09:58:19;102411.38;;;0.52;73.20
62708;BME280;48769;51.624;5.886;2022-12-18T10:00:46;102408.00;;;0.59;72.45
62708;BME280;48769;51.624;5.886;2022-12-18T10:03:13;102400.31;;;0.65;72.92
62708;BME280;48769;51.624;5.886;2022-12-18T10:08:18;102380.50;;;0.77;71.95
62708;BME280;48769;51.624;5.886;2022-12-18T10:10:52;102371.13;;;0.88;71.65
62708;BME280;48769;51.624;5.886;2022-12-18T10:13:26;102366.72;;;0.84;70.45
62708;BME280;48769;51.624;5.886;2022-12-18T10:19:00;102358.13;;;0.91;70.29
62708;BME280;48769;51.624;5.886;2022-12-18T10:21:48;102353.09;;;1.03;70.13
62708;BME280;48769;51.624;5.886;2022-12-18T10:26:47;102362.03;;;1.24;70.08
62708;BME280;48769;51.624;5.886;2022-12-18T10:29:14;102347.38;;;1.35;70.02
62708;BME280;48769;51.624;5.886;2022-12-18T10:31:40;102356.19;;;1.49;70.21
62708;BME280;48769;51.624;5.886;2022-12-18T10:34:10;102351.91;;;1.50;69.65
62708;BME280;48769;51.624;5.886;2022-12-18T10:36:36;102364.66;;;1.30;69.31
62708;BME280;48769;51.624;5.886;2022-12-18T10:39:15;102368.34;;;1.49;69.55
62708;BME280;48769;51.624;5.886;2022-12-18T10:41:41;102364.13;;;1.58;69.42
62708;BME280;48769;51.624;5.886;2022-12-18T10:44:21;102354.28;;;1.31;68.84
62708;BME280;48769;51.624;5.886;2022-12-18T10:46:49;102348.22;;;1.31;69.36
62708;BME280;48769;51.624;5.886;2022-12-18T10:49:21;102337.94;;;1.43;69.68
62708;BME280;48769;51.624;5.886;2022-12-18T10:51:47;102337.91;;;1.40;68.89
62708;BME280;48769;51.624;5.886;2022-12-18T10:54:18;102319.66;;;1.37;68.40
62708;BME280;48769;51.624;5.886;2022-12-18T10:56:44;102328.19;;;1.27;69.45
62708;BME280;48769;51.624;5.886;2022-12-18T10:59:13;102315.34;;;1.42;69.15
62708;BME280;48769;51.624;5.886;2022-12-18T11:04:16;102310.38;;;1.67;69.33
62708;BME280;48769;51.624;5.886;2022-12-18T11:06:57;102305.13;;;1.63;68.13
62708;BME280;48769;51.624;5.886;2022-12-18T11:09:27;102299.06;;;1.64;68.52
62708;BME280;48769;51.624;5.886;2022-12-18T11:11:56;102284.34;;;1.70;68.71
62708;BME280;48769;51.624;5.886;2022-12-18T11:14:28;102286.81;;;1.53;68.98
62708;BME280;48769;51.624;5.886;2022-12-18T11:16:55;102276.53;;;1.70;68.90
62708;BME280;48769;51.624;5.886;2022-12-18T11:19:28;102281.63;;;1.53;68.35
62708;BME280;48769;51.624;5.886;2022-12-18T11:21:55;102273.78;;;1.54;69.20
62708;BME280;48769;51.624;5.886;2022-12-18T11:24:30;102265.91;;;1.45;68.30
62708;BME280;48769;51.624;5.886;2022-12-18T11:27:02;102262.66;;;1.69;68.41
62708;BME280;48769;51.624;5.886;2022-12-18T11:29:39;102256.56;;;1.72;68.32
62708;BME280;48769;51.624;5.886;2022-12-18T11:38:32;102258.38;;;1.80;68.76
62708;BME280;48769;51.624;5.886;2022-12-18T11:44:22;102249.78;;;1.94;67.76
62708;BME280;48769;51.624;5.886;2022-12-18T11:46:38;102260.25;;;2.01;67.83
62708;BME280;48769;51.624;5.886;2022-12-18T11:49:14;102262.00;;;1.99;67.83
62708;BME280;48769;51.624;5.886;2022-12-18T11:52:23;102263.69;;;1.94;66.78
62708;BME280;48769;51.624;5.886;2022-12-18T11:54:56;102259.31;;;1.92;66.69
62708;BME280;48769;51.624;5.886;2022-12-18T11:57:28;102257.72;;;2.09;67.36
62708;BME280;48769;51.624;5.886;2022-12-18T12:00:18;102250.69;;;2.00;66.67
62708;BME280;48769;51.624;5.886;2022-12-18T12:08:17;102232.38;;;1.91;67.18
62708;BME280;48769;51.624;5.886;2022-12-18T12:14:07;102212.41;;;1.90;65.74
62708;BME280;48769;51.624;5.886;2022-12-18T12:19:04;102222.13;;;2.19;66.62
62708;BME280;48769;51.624;5.886;2022-12-18T12:22:08;102208.13;;;2.01;66.07
62708;BME280;48769;51.624;5.886;2022-12-18T12:24:39;102204.72;;;2.08;66.38
62708;BME280;48769;51.624;5.886;2022-12-18T12:29:50;102208.25;;;2.26;66.65
62708;BME280;48769;51.624;5.886;2022-12-18T12:35:25;102201.25;;;2.16;66.19
62708;BME280;48769;51.624;5.886;2022-12-18T12:38:14;102201.22;;;2.06;66.05
62708;BME280;48769;51.624;5.886;2022-12-18T12:40:49;102197.72;;;2.07;66.09
62708;BME280;48769;51.624;5.886;2022-12-18T12:45:51;102189.97;;;2.20;66.30
62708;BME280;48769;51.624;5.886;2022-12-18T12:48:42;102172.56;;;2.13;65.54
62708;BME280;48769;51.624;5.886;2022-12-18T12:53:44;102183.88;;;2.15;65.18
62708;BME280;48769;51.624;5.886;2022-12-18T12:56:13;102170.84;;;2.18;66.07
62708;BME280;48769;51.624;5.886;2022-12-18T12:58:51;102165.63;;;2.18;65.44
62708;BME280;48769;51.624;5.886;2022-12-18T13:04:12;102150.91;;;2.24;65.10
62708;BME280;48769;51.624;5.886;2022-12-18T13:06:50;102150.81;;;2.10;65.21
62708;BME280;48769;51.624;5.886;2022-12-18T13:09:18;102149.09;;;2.14;65.33
62708;BME280;48769;51.624;5.886;2022-12-18T13:11:45;102141.28;;;2.14;65.14
62708;BME280;48769;51.624;5.886;2022-12-18T13:14:33;102139.53;;;2.10;65.17
62708;BME280;48769;51.624;5.886;2022-12-18T13:19:41;102125.63;;;2.14;64.96
62708;BME280;48769;51.624;5.886;2022-12-18T13:22:24;102116.91;;;2.00;65.53
62708;BME280;48769;51.624;5.886;2022-12-18T13:24:51;102125.66;;;2.16;65.88
62708;BME280;48769;51.624;5.886;2022-12-18T13:35:40;102113.47;;;2.18;65.33
62708;BME280;48769;51.624;5.886;2022-12-18T13:43:22;102103.91;;;2.14;65.82
62708;BME280;48769;51.624;5.886;2022-12-18T13:48:24;102106.53;;;2.17;66.47
62708;BME280;48769;51.624;5.886;2022-12-18T13:53:29;102108.31;;;2.27;65.79
62708;BME280;48769;51.624;5.886;2022-12-18T13:55:56;102104.84;;;2.28;65.67
62708;BME280;48769;51.624;5.886;2022-12-18T13:58:21;102107.44;;;2.29;65.43
62708;BME280;48769;51.624;5.886;2022-12-18T14:00:47;102093.56;;;2.32;65.55
62708;BME280;48769;51.624;5.886;2022-12-18T14:03:32;102095.31;;;2.34;65.53
62708;BME280;48769;51.624;5.886;2022-12-18T14:06:07;102089.22;;;2.36;65.44
62708;BME280;48769;51.624;5.886;2022-12-18T14:08:38;102093.53;;;2.26;65.07
62708;BME280;48769;51.624;5.886;2022-12-18T14:11:04;102086.59;;;2.25;65.13
62708;BME280;48769;51.624;5.886;2022-12-18T14:13:35;102090.91;;;2.27;65.62
62708;BME280;48769;51.624;5.886;2022-12-18T14:16:04;102088.34;;;2.35;65.52
62708;BME280;48769;51.624;5.886;2022-12-18T14:18:51;102084.00;;;2.37;65.17
62708;BME280;48769;51.624;5.886;2022-12-18T14:21:26;102090.91;;;2.27;64.75
62708;BME280;48769;51.624;5.886;2022-12-18T14:24:17;102086.59;;;2.25;64.81